Time;durP1;ratioP1;P1;durP2;ratioP2;P2;SDS_P1;SDS_P2;PMS_P1;PMS_P2;Temp;Humidity;BMP_temperature;BMP_pressure;BME280_temperature;BME280_humidity;BME280_pressure;Samples;Min_cycle;Max_cycle;Signal;HPM_P1;HPM_P2
2021/04/16 00:00:35;;;;;;;5.27;4.77;;;2.80;99.90;;;;;;5030361;28;20457;-66
2021/04/16 00:03:00;;;;;;;7.23;4.73;;;2.70;99.90;;;;;;5013937;28;20437;-65
2021/04/16 00:05:26;;;;;;;6.37;5.23;;;2.70;99.90;;;;;;5026144;28;20436;-66
2021/04/16 00:07:52;;;;;;;5.73;5.17;;;2.60;99.90;;;;;;5031821;28;20210;-66
2021/04/16 00:10:24;;;;;;;5.70;4.83;;;2.60;99.90;;;;;;5032445;28;20440;-65
2021/04/16 00:12:50;;;;;;;6.53;4.97;;;2.60;99.90;;;;;;5032876;28;20257;-66
2021/04/16 00:15:19;;;;;;;4.97;4.57;;;2.60;99.90;;;;;;5027107;28;20579;-66
2021/04/16 00:17:45;;;;;;;4.97;4.47;;;2.60;99.90;;;;;;5025750;28;20531;-66
2021/04/16 00:20:13;;;;;;;7.20;4.60;;;2.50;99.90;;;;;;5032650;28;20425;-66
2021/04/16 00:22:38;;;;;;;5.83;4.80;;;2.40;99.90;;;;;;5018387;28;20190;-66
2021/04/16 00:25:07;;;;;;;5.63;5.13;;;2.40;99.90;;;;;;5022087;28;20436;-66
2021/04/16 00:27:32;;;;;;;4.97;4.47;;;2.40;99.90;;;;;;5032348;28;20209;-66
2021/04/16 00:29:58;;;;;;;5.03;4.57;;;2.40;99.90;;;;;;5032319;28;20424;-65
2021/04/16 00:32:24;;;;;;;9.53;5.10;;;2.30;99.90;;;;;;5032067;28;20170;-65
2021/04/16 00:34:49;;;;;;;6.70;4.60;;;2.30;99.90;;;;;;5031026;28;20248;-66
2021/04/16 00:37:15;;;;;;;5.23;4.53;;;2.30;99.90;;;;;;5030764;28;20256;-65
2021/04/16 00:39:41;;;;;;;5.43;4.77;;;2.30;99.90;;;;;;5030984;28;20174;-65
2021/04/16 00:42:07;;;;;;;5.27;4.77;;;2.30;99.90;;;;;;5031925;28;20289;-66
2021/04/16 00:44:32;;;;;;;6.33;5.73;;;2.40;99.90;;;;;;5032915;28;20448;-66
2021/04/16 00:47:01;;;;;;;4.97;4.57;;;2.40;99.90;;;;;;5028660;28;20559;-66
2021/04/16 00:49:32;;;;;;;6.70;5.03;;;2.30;99.90;;;;;;5029522;28;20183;-66
2021/04/16 00:52:03;;;;;;;4.93;4.23;;;2.30;99.90;;;;;;5027768;28;20497;-66
2021/04/16 00:54:34;;;;;;;6.53;4.70;;;2.40;99.90;;;;;;5029000;28;20484;-66
2021/04/16 00:57:00;;;;;;;4.20;3.80;;;2.40;99.90;;;;;;5028261;28;20457;-66
2021/04/16 00:59:30;;;;;;;5.87;4.87;;;2.40;99.90;;;;;;5021471;28;20519;-65
2021/04/16 01:01:58;;;;;;;4.53;4.10;;;2.30;99.90;;;;;;5027490;28;20553;-66
2021/04/16 01:04:23;;;;;;;5.00;4.50;;;2.30;99.90;;;;;;5023274;28;20428;-66
2021/04/16 01:06:49;;;;;;;4.80;4.03;;;2.20;99.90;;;;;;5031120;28;20464;-66
2021/04/16 01:09:15;;;;;;;5.73;4.20;;;2.20;99.90;;;;;;5031333;28;20200;-66
2021/04/16 01:11:41;;;;;;;4.50;4.03;;;2.20;99.90;;;;;;5027057;28;20435;-66
2021/04/16 01:14:07;;;;;;;4.53;4.13;;;2.20;99.90;;;;;;5031792;28;20432;-66
2021/04/16 01:16:34;;;;;;;5.10;4.50;;;2.20;99.90;;;;;;5027342;28;20183;-66
2021/04/16 01:19:04;;;;;;;4.30;3.90;;;2.10;99.90;;;;;;5031886;28;20433;-66
2021/04/16 01:22:08;;;;;;;6.23;4.33;;;2.00;99.90;;;;;;5025313;28;20495;-67
2021/04/16 01:24:34;;;;;;;4.83;4.33;;;2.00;99.90;;;;;;5018615;28;20435;-65
2021/04/16 01:27:10;;;;;;;4.60;4.17;;;2.00;99.90;;;;;;5031917;28;20608;-65
2021/04/16 01:29:41;;;;;;;5.83;5.27;;;2.00;99.90;;;;;;5019538;28;20429;-66
2021/04/16 01:32:09;;;;;;;4.87;4.47;;;2.00;99.90;;;;;;5018010;28;20429;-65
2021/04/16 01:34:35;;;;;;;4.53;4.13;;;1.90;99.90;;;;;;5030987;28;20471;-65
2021/04/16 01:37:01;;;;;;;10.10;4.37;;;1.80;99.90;;;;;;5019149;28;20527;-65
2021/04/16 01:39:29;;;;;;;4.77;4.33;;;1.80;99.90;;;;;;5025383;28;20498;-66
2021/04/16 01:41:55;;;;;;;5.20;4.67;;;1.80;99.90;;;;;;5029631;28;20264;-65
2021/04/16 01:44:24;;;;;;;3.83;3.53;;;1.80;99.90;;;;;;5022490;28;20475;-67
2021/04/16 01:46:52;;;;;;;5.60;4.57;;;1.70;99.90;;;;;;5029038;28;20453;-65
2021/04/16 01:49:18;;;;;;;4.60;4.13;;;1.70;99.90;;;;;;5025504;28;20463;-65
2021/04/16 01:51:44;;;;;;;6.40;3.80;;;1.70;99.90;;;;;;5019338;28;20425;-65
2021/04/16 01:54:18;;;;;;;4.70;4.30;;;1.80;99.90;;;;;;5031014;28;20512;-67
2021/04/16 01:56:47;;;;;;;4.13;3.73;;;1.70;99.90;;;;;;5029737;28;20452;-67
2021/04/16 01:59:18;;;;;;;4.80;4.27;;;1.60;99.90;;;;;;5018023;28;20441;-67
2021/04/16 02:01:44;;;;;;;4.47;3.90;;;1.60;99.90;;;;;;5030293;28;20461;-67
2021/04/16 02:04:11;;;;;;;4.00;3.70;;;1.50;99.90;;;;;;5030363;28;20420;-67
2021/04/16 02:06:38;;;;;;;6.43;4.10;;;1.50;99.90;;;;;;5031584;28;20194;-67
2021/04/16 02:09:07;;;;;;;6.10;5.10;;;1.50;99.90;;;;;;5027768;28;20490;-67
2021/04/16 02:11:35;;;;;;;4.87;4.37;;;1.50;99.90;;;;;;5026171;28;20430;-68
2021/04/16 02:14:01;;;;;;;6.70;5.03;;;1.40;99.90;;;;;;5028149;28;20445;-67
2021/04/16 02:16:26;;;;;;;4.40;4.00;;;1.50;99.90;;;;;;5021389;28;20451;-67
2021/04/16 02:18:54;;;;;;;5.03;4.27;;;1.50;99.90;;;;;;5021430;28;20434;-67
2021/04/16 02:21:19;;;;;;;4.70;3.93;;;1.60;99.90;;;;;;5027310;28;20287;-67
2021/04/16 02:23:45;;;;;;;4.53;4.10;;;1.60;99.90;;;;;;5025607;28;20472;-67
2021/04/16 02:26:10;;;;;;;4.83;4.00;;;1.60;99.90;;;;;;5031036;28;20648;-67
2021/04/16 02:28:36;;;;;;;4.70;4.20;;;1.60;99.90;;;;;;5031616;28;20201;-68
2021/04/16 02:31:01;;;;;;;6.63;5.80;;;1.70;99.90;;;;;;5030701;28;20186;-67
2021/04/16 02:33:27;;;;;;;5.60;5.10;;;1.70;99.90;;;;;;5030998;28;20178;-67
2021/04/16 02:35:53;;;;;;;7.90;5.30;;;1.70;99.90;;;;;;5030453;28;20193;-67
2021/04/16 02:38:18;;;;;;;9.03;4.60;;;1.60;99.90;;;;;;5031267;28;20197;-67
2021/04/16 02:40:44;;;;;;;5.77;4.50;;;1.50;99.90;;;;;;5030818;28;20618;-67
2021/04/16 02:43:10;;;;;;;4.33;3.90;;;1.50;99.90;;;;;;5031205;28;20171;-67
2021/04/16 02:45:35;;;;;;;5.50;4.37;;;1.40;99.90;;;;;;5031465;28;20216;-67
2021/04/16 02:48:01;;;;;;;5.33;4.60;;;1.30;99.90;;;;;;5029778;28;20453;-67
2021/04/16 02:50:29;;;;;;;7.27;3.70;;;1.30;99.90;;;;;;5030800;28;20197;-67
2021/04/16 02:52:55;;;;;;;6.30;4.30;;;1.20;99.90;;;;;;5030921;28;20265;-67
2021/04/16 02:55:20;;;;;;;4.77;4.27;;;1.30;99.90;;;;;;5031176;28;20523;-67
2021/04/16 02:57:46;;;;;;;5.77;4.30;;;1.30;99.90;;;;;;5031060;28;20194;-67
2021/04/16 03:00:19;;;;;;;4.70;4.10;;;1.30;99.90;;;;;;5030996;28;20174;-67
2021/04/16 03:02:45;;;;;;;5.30;3.93;;;1.30;99.90;;;;;;5030828;28;20854;-67
2021/04/16 03:05:11;;;;;;;4.73;4.27;;;1.30;99.90;;;;;;5030754;28;20436;-67
2021/04/16 03:07:37;;;;;;;3.50;3.20;;;1.30;99.90;;;;;;5031116;28;20197;-67
2021/04/16 03:10:05;;;;;;;5.17;4.53;;;1.30;99.90;;;;;;5030715;28;20433;-67
2021/04/16 03:12:31;;;;;;;5.00;3.90;;;1.20;99.90;;;;;;5031229;28;20182;-67
2021/04/16 03:14:56;;;;;;;6.43;4.53;;;1.20;99.90;;;;;;5030409;28;20532;-67
2021/04/16 03:17:23;;;;;;;6.10;4.87;;;1.10;99.90;;;;;;5030468;28;20220;-67
2021/04/16 03:19:48;;;;;;;6.77;4.50;;;1.00;99.90;;;;;;5030341;28;20182;-67
2021/04/16 03:22:14;;;;;;;5.07;4.63;;;1.00;99.90;;;;;;5029840;28;20479;-67
2021/04/16 03:24:40;;;;;;;7.63;4.93;;;1.00;99.90;;;;;;5025150;28;20175;-67
2021/04/16 03:27:06;;;;;;;4.90;4.40;;;1.00;99.90;;;;;;5030752;28;20202;-67
2021/04/16 03:29:32;;;;;;;5.80;5.20;;;1.00;99.90;;;;;;5021337;28;20175;-67
2021/04/16 03:31:57;;;;;;;4.63;4.13;;;0.90;99.90;;;;;;5030864;28;20554;-67
2021/04/16 03:34:23;;;;;;;8.03;6.50;;;0.90;99.90;;;;;;5029690;28;20579;-67
2021/04/16 03:36:49;;;;;;;5.23;4.73;;;1.00;99.90;;;;;;5030442;28;20394;-67
2021/04/16 03:39:15;;;;;;;5.57;5.07;;;0.90;99.90;;;;;;5029398;28;20265;-67
2021/04/16 03:41:41;;;;;;;4.53;4.13;;;0.90;99.90;;;;;;5030519;28;20556;-67
2021/04/16 03:44:06;;;;;;;4.37;3.67;;;1.00;99.90;;;;;;5033513;28;20189;-67
2021/04/16 03:46:33;;;;;;;4.57;4.17;;;1.00;99.90;;;;;;5033596;28;20844;-67
2021/04/16 03:48:58;;;;;;;4.63;4.17;;;1.00;99.90;;;;;;5033151;28;20182;-67
2021/04/16 03:51:24;;;;;;;4.77;4.17;;;1.10;99.90;;;;;;5033798;28;20486;-67
2021/04/16 03:53:50;;;;;;;4.53;4.00;;;1.10;99.90;;;;;;5033251;28;20182;-67
2021/04/16 03:56:16;;;;;;;5.23;4.73;;;1.10;99.90;;;;;;5033911;28;20269;-67
2021/04/16 03:58:44;;;;;;;5.87;4.60;;;1.00;99.90;;;;;;5031914;28;20204;-67
2021/04/16 04:01:10;;;;;;;4.37;3.70;;;1.00;99.90;;;;;;5032800;28;20462;-67
2021/04/16 04:03:37;;;;;;;7.00;4.83;;;0.90;99.90;;;;;;5020360;28;20425;-67
2021/04/16 04:06:04;;;;;;;4.40;4.00;;;1.00;99.90;;;;;;5032576;28;20432;-67
2021/04/16 04:08:30;;;;;;;4.50;3.70;;;1.00;99.90;;;;;;5030883;28;20463;-67
2021/04/16 04:10:55;;;;;;;7.67;4.50;;;1.00;99.90;;;;;;5026542;28;20436;-67
2021/04/16 04:13:21;;;;;;;5.13;4.63;;;0.90;99.90;;;;;;5032798;28;20206;-67
2021/04/16 04:15:46;;;;;;;4.80;4.40;;;0.90;99.90;;;;;;5032850;28;20193;-67
2021/04/16 04:18:12;;;;;;;5.43;4.90;;;0.80;99.90;;;;;;5033457;28;20725;-67
2021/04/16 04:20:39;;;;;;;4.70;4.30;;;0.70;99.90;;;;;;5024226;28;20212;-67
2021/04/16 04:23:06;;;;;;;5.60;4.70;;;0.70;99.90;;;;;;5033356;28;20194;-67
2021/04/16 04:25:32;;;;;;;4.27;3.83;;;0.60;99.90;;;;;;5022128;28;20424;-66
2021/04/16 04:28:01;;;;;;;9.83;5.03;;;0.60;99.90;;;;;;5026206;28;20486;-66
2021/04/16 04:30:30;;;;;;;5.30;4.80;;;0.60;99.90;;;;;;5013094;28;20437;-65
2021/04/16 04:32:57;;;;;;;5.50;5.00;;;0.60;99.90;;;;;;5022730;28;20457;-66
2021/04/16 04:35:23;;;;;;;4.90;4.50;;;0.70;99.90;;;;;;5031964;28;20524;-64
2021/04/16 04:37:49;;;;;;;5.20;4.70;;;0.80;99.90;;;;;;5032757;28;20449;-65
2021/04/16 04:40:17;;;;;;;6.93;4.53;;;0.80;99.90;;;;;;5022205;28;20997;-65
2021/04/16 04:42:43;;;;;;;6.73;5.27;;;0.70;99.90;;;;;;5032317;28;20265;-66
2021/04/16 04:45:09;;;;;;;4.87;4.47;;;0.70;99.90;;;;;;5028254;28;20441;-65
2021/04/16 04:47:35;;;;;;;5.20;4.43;;;0.80;99.90;;;;;;5032565;28;20449;-66
2021/04/16 04:50:01;;;;;;;7.73;4.60;;;0.80;99.90;;;;;;5032451;28;20431;-65
2021/04/16 04:52:30;;;;;;;5.10;4.40;;;0.80;99.90;;;;;;5032683;28;20214;-66
2021/04/16 04:54:57;;;;;;;5.00;4.50;;;0.80;99.90;;;;;;5032710;28;20217;-65
2021/04/16 04:57:25;;;;;;;4.90;4.27;;;0.80;99.90;;;;;;5032648;28;20457;-65
2021/04/16 04:59:51;;;;;;;6.50;5.07;;;0.90;99.90;;;;;;5032375;28;20436;-65
2021/04/16 05:02:19;;;;;;;8.60;5.03;;;0.90;99.90;;;;;;5031686;28;20471;-65
2021/04/16 05:04:44;;;;;;;6.43;4.90;;;1.00;99.90;;;;;;5032315;28;20533;-65
2021/04/16 05:07:10;;;;;;;6.37;5.53;;;1.00;99.90;;;;;;5032150;28;20475;-65
2021/04/16 05:09:36;;;;;;;5.30;4.80;;;1.10;99.90;;;;;;5031791;28;20182;-65
2021/04/16 05:12:02;;;;;;;5.03;4.63;;;1.20;99.90;;;;;;5032020;28;20225;-65
2021/04/16 05:14:28;;;;;;;8.50;4.80;;;1.30;99.90;;;;;;5030992;28;20437;-65
2021/04/16 05:16:54;;;;;;;5.93;5.00;;;1.40;99.90;;;;;;5019304;28;20472;-65
2021/04/16 05:19:20;;;;;;;7.73;5.17;;;1.60;99.90;;;;;;5032153;28;20182;-65
2021/04/16 05:21:46;;;;;;;8.43;5.57;;;1.70;99.90;;;;;;5030835;28;20229;-65
2021/04/16 05:24:13;;;;;;;7.43;6.00;;;1.80;99.90;;;;;;5030580;28;20820;-65
2021/04/16 05:26:39;;;;;;;7.90;5.87;;;1.90;99.90;;;;;;5030928;28;20425;-66
2021/04/16 05:29:05;;;;;;;9.13;5.00;;;2.10;99.90;;;;;;5029083;28;20442;-66
2021/04/16 05:31:31;;;;;;;8.20;6.40;;;2.20;99.90;;;;;;5020841;28;20464;-66
2021/04/16 05:33:57;;;;;;;6.20;5.57;;;2.30;99.90;;;;;;5029690;28;20236;-66
2021/04/16 05:36:22;;;;;;;5.70;5.20;;;2.40;99.90;;;;;;5028036;28;20544;-66
2021/04/16 05:38:48;;;;;;;9.50;5.47;;;2.60;99.90;;;;;;5031735;28;20210;-66
2021/04/16 05:41:14;;;;;;;7.13;4.83;;;2.70;99.90;;;;;;5031055;28;20214;-65
2021/04/16 05:43:40;;;;;;;7.93;5.20;;;2.90;99.90;;;;;;5031582;28;20185;-66
2021/04/16 05:46:06;;;;;;;5.23;4.70;;;3.00;99.90;;;;;;5030763;28;20424;-64
2021/04/16 05:48:32;;;;;;;5.37;4.93;;;3.10;99.90;;;;;;5024072;28;20695;-64
2021/04/16 05:50:57;;;;;;;8.13;5.47;;;3.10;99.90;;;;;;5029638;28;20179;-65
2021/04/16 05:53:23;;;;;;;7.23;6.30;;;3.10;99.90;;;;;;5031544;28;20706;-65
2021/04/16 05:55:49;;;;;;;9.57;4.90;;;3.10;99.90;;;;;;5030588;28;20195;-67
2021/04/16 05:58:15;;;;;;;8.40;5.40;;;3.00;99.90;;;;;;5019646;28;20598;-65
2021/04/16 06:00:41;;;;;;;5.87;5.37;;;3.00;99.90;;;;;;5030982;28;20211;-65
2021/04/16 06:03:08;;;;;;;6.40;5.10;;;3.00;99.90;;;;;;5019619;28;20447;-64
2021/04/16 06:05:33;;;;;;;7.43;5.57;;;3.20;99.90;;;;;;5012143;28;21076;-66
2021/04/16 06:07:59;;;;;;;6.77;6.10;;;3.00;99.90;;;;;;5022469;28;20453;-66
2021/04/16 06:10:25;;;;;;;7.80;6.60;;;3.20;99.90;;;;;;5029587;28;20162;-67
2021/04/16 06:12:52;;;;;;;7.27;6.57;;;3.30;99.90;;;;;;5028730;28;20267;-67
2021/04/16 06:15:21;;;;;;;7.37;6.60;;;3.50;99.90;;;;;;5027366;28;20969;-67
2021/04/16 06:17:47;;;;;;;12.80;7.10;;;3.60;99.90;;;;;;5029604;28;20543;-67
2021/04/16 06:20:15;;;;;;;11.20;6.77;;;3.60;99.90;;;;;;5030754;28;21053;-66
2021/04/16 06:22:41;;;;;;;11.23;7.33;;;3.60;99.90;;;;;;5027087;28;21058;-64
2021/04/16 06:25:09;;;;;;;7.33;6.50;;;3.80;99.90;;;;;;5029572;28;20436;-66
2021/04/16 06:27:35;;;;;;;9.47;7.73;;;3.90;99.90;;;;;;5023814;28;20441;-67
2021/04/16 06:30:01;;;;;;;7.53;6.83;;;4.00;99.90;;;;;;5030193;28;20463;-67
2021/04/16 06:32:26;;;;;;;8.00;6.97;;;4.00;99.90;;;;;;5022663;28;20437;-65
2021/04/16 06:34:53;;;;;;;7.07;6.37;;;4.10;99.90;;;;;;5028360;28;20174;-67
2021/04/16 06:37:19;;;;;;;8.13;7.03;;;3.90;99.90;;;;;;5024936;28;20227;-66
2021/04/16 06:39:45;;;;;;;7.70;6.53;;;4.10;99.90;;;;;;5029889;28;20455;-67
2021/04/16 06:42:23;;;;;;;7.80;7.00;;;4.20;99.90;;;;;;5028792;28;20537;-66
2021/04/16 06:44:51;;;;;;;9.87;8.30;;;4.40;99.90;;;;;;5021423;28;20463;-67
2021/04/16 06:47:22;;;;;;;7.60;6.90;;;4.50;99.90;;;;;;5029505;28;20515;-67
2021/04/16 06:49:48;;;;;;;16.00;12.37;;;4.60;99.90;;;;;;5020008;28;20972;-67
2021/04/16 06:52:15;;;;;;;9.60;6.67;;;4.70;99.90;;;;;;5027355;28;20435;-65
2021/04/16 06:54:51;;;;;;;6.83;6.20;;;4.80;99.90;;;;;;5029756;28;20985;-66
2021/04/16 06:57:40;;;;;;;10.90;7.30;;;4.90;99.90;;;;;;5021167;28;20456;-67
2021/04/16 07:00:15;;;;;;;7.20;6.70;;;5.10;99.90;;;;;;5029657;28;20464;-67
2021/04/16 07:02:54;;;;;;;8.80;8.00;;;5.30;99.90;;;;;;5012251;28;20571;-66
2021/04/16 07:05:31;;;;;;;7.37;6.77;;;5.30;99.90;;;;;;5026052;28;20515;-66
2021/04/16 07:07:58;;;;;;;7.73;7.00;;;5.10;99.90;;;;;;5017587;28;20456;-67
2021/04/16 07:10:28;;;;;;;7.57;6.07;;;5.10;99.90;;;;;;5026453;28;20460;-67
2021/04/16 07:12:54;;;;;;;7.20;6.50;;;5.00;99.90;;;;;;5026092;28;20527;-67
2021/04/16 07:15:39;;;;;;;8.30;6.63;;;5.20;99.90;;;;;;5028284;28;20513;-66
2021/04/16 07:18:06;;;;;;;7.03;6.30;;;5.40;99.90;;;;;;5024426;28;20198;-67
2021/04/16 07:20:31;;;;;;;7.97;6.57;;;5.60;99.90;;;;;;5030225;28;20436;-66
2021/04/16 07:22:59;;;;;;;7.67;6.93;;;5.70;99.90;;;;;;5033772;28;20429;-67
2021/04/16 07:25:42;;;;;;;8.20;6.73;;;5.90;99.90;;;;;;5032649;28;20177;-66
2021/04/16 07:28:31;;;;;;;7.67;6.87;;;6.10;99.90;;;;;;5033687;28;20449;-67
2021/04/16 07:30:57;;;;;;;7.70;6.90;;;6.20;99.90;;;;;;5031712;28;20429;-68
2021/04/16 07:33:38;;;;;;;15.27;6.97;;;6.50;99.90;;;;;;5033305;28;20447;-66
2021/04/16 07:36:29;;;;;;;9.00;8.10;;;6.70;99.90;;;;;;5027416;28;20244;-66
2021/04/16 07:38:59;;;;;;;6.90;6.30;;;7.00;99.90;;;;;;5029015;28;20437;-65
2021/04/16 07:41:29;;;;;;;9.90;6.90;;;7.50;99.90;;;;;;5029838;28;20978;-66
2021/04/16 07:43:58;;;;;;;8.87;6.97;;;7.80;99.90;;;;;;5032744;28;20431;-67
2021/04/16 07:46:26;;;;;;;7.23;6.63;;;7.80;99.90;;;;;;5025476;28;20578;-66
2021/04/16 07:49:10;;;;;;;6.80;6.20;;;7.80;99.90;;;;;;5033864;28;20445;-65
2021/04/16 07:51:36;;;;;;;7.90;7.20;;;7.60;99.90;;;;;;5019132;28;20460;-66
2021/04/16 07:54:11;;;;;;;7.60;6.90;;;7.50;99.90;;;;;;5032803;28;20445;-65
2021/04/16 07:56:37;;;;;;;7.03;6.40;;;7.40;99.90;;;;;;5032574;28;20835;-66
2021/04/16 07:59:10;;;;;;;8.07;7.27;;;7.30;99.90;;;;;;5032818;28;20562;-66
2021/04/16 08:01:38;;;;;;;8.30;7.47;;;7.20;99.90;;;;;;5022784;28;20225;-65
2021/04/16 08:04:18;;;;;;;10.60;7.70;;;7.10;99.90;;;;;;5026753;28;20536;-67
2021/04/16 08:06:50;;;;;;;8.13;7.40;;;6.80;99.90;;;;;;5029971;28;20776;-65
2021/04/16 08:09:24;;;;;;;7.73;7.13;;;6.50;99.90;;;;;;5040756;28;20425;-67
2021/04/16 08:12:13;;;;;;;9.60;7.73;;;6.40;99.90;;;;;;5026850;28;20433;-67
2021/04/16 08:14:40;;;;;;;7.77;7.07;;;6.30;99.90;;;;;;5033235;28;20464;-66
2021/04/16 08:17:17;;;;;;;7.83;7.13;;;6.40;99.90;;;;;;5023053;28;20518;-67
2021/04/16 08:19:44;;;;;;;8.10;7.30;;;6.50;99.90;;;;;;5032863;28;20934;-66
2021/04/16 08:22:32;;;;;;;7.87;7.10;;;6.60;99.90;;;;;;5028490;28;20551;-67
2021/04/16 08:25:12;;;;;;;9.60;8.70;;;6.50;99.90;;;;;;5015636;28;20430;-67
2021/04/16 08:27:51;;;;;;;8.37;7.57;;;6.30;99.90;;;;;;5020363;28;20474;-65
2021/04/16 08:30:46;;;;;;;11.50;10.40;;;6.00;99.90;;;;;;5028840;28;20452;-67
2021/04/16 08:33:22;;;;;;;9.17;8.33;;;6.20;99.90;;;;;;5029203;28;20436;-67
2021/04/16 08:36:31;;;;;;;7.93;7.23;;;6.20;99.90;;;;;;5026002;28;20429;-66
2021/04/16 08:39:19;;;;;;;7.13;6.60;;;6.40;99.90;;;;;;4950789;29;20468;-66
2021/04/16 08:41:57;;;;;;;8.33;7.60;;;6.60;99.90;;;;;;5022427;28;20462;-65
2021/04/16 08:44:26;;;;;;;8.20;6.80;;;6.40;99.90;;;;;;5032862;28;21039;-67
2021/04/16 08:46:55;;;;;;;7.23;6.60;;;6.30;99.90;;;;;;5032017;28;20540;-66
2021/04/16 08:49:28;;;;;;;11.57;10.47;;;6.40;99.90;;;;;;5021532;28;20428;-66
2021/04/16 08:52:02;;;;;;;8.40;7.70;;;6.60;99.90;;;;;;5023419;28;20950;-66
2021/04/16 08:54:31;;;;;;;8.40;7.60;;;6.80;99.90;;;;;;5028806;28;20520;-66
2021/04/16 08:57:07;;;;;;;8.57;7.77;;;7.00;99.90;;;;;;5031060;28;20904;-66
2021/04/16 08:59:51;;;;;;;8.30;7.60;;;7.10;99.90;;;;;;5023052;28;20441;-67
2021/04/16 09:02:21;;;;;;;6.30;5.80;;;7.30;99.90;;;;;;5029914;28;20468;-67
2021/04/16 09:04:55;;;;;;;7.87;7.23;;;7.40;99.90;;;;;;5028963;28;20421;-66
2021/04/16 09:07:32;;;;;;;7.63;6.93;;;7.40;99.90;;;;;;5028358;28;20461;-67
2021/04/16 09:09:58;;;;;;;8.23;7.60;;;7.70;99.90;;;;;;5031074;28;21300;-67
2021/04/16 09:12:54;;;;;;;7.80;7.20;;;8.10;99.90;;;;;;5027862;28;20461;-67
2021/04/16 09:15:19;;;;;;;6.13;5.73;;;8.40;99.90;;;;;;5012850;28;20866;-67
2021/04/16 09:17:51;;;;;;;8.10;7.40;;;9.10;99.90;;;;;;5031876;28;20472;-67
2021/04/16 09:20:19;;;;;;;6.80;6.30;;;10.80;99.90;;;;;;5031628;28;20179;-67
2021/04/16 09:22:45;;;;;;;7.90;6.53;;;11.70;99.70;;;;;;5027786;28;20480;-66
2021/04/16 09:25:31;;;;;;;5.57;5.07;;;12.40;98.10;;;;;;5029078;28;20436;-66
2021/04/16 09:28:21;;;;;;;6.20;5.70;;;12.60;94.40;;;;;;4999233;28;21009;-67
2021/04/16 09:30:58;;;;;;;5.23;4.73;;;12.30;94.10;;;;;;5029601;28;20437;-68
2021/04/16 09:33:36;;;;;;;5.40;5.00;;;11.40;95.00;;;;;;5029035;28;20444;-67
2021/04/16 09:36:10;;;;;;;5.90;5.40;;;11.10;95.40;;;;;;5044414;28;20523;-67
2021/04/16 09:38:53;;;;;;;5.67;5.27;;;10.80;95.00;;;;;;5028494;28;20516;-68
2021/04/16 09:41:19;;;;;;;6.33;5.70;;;10.40;95.70;;;;;;5020576;28;20464;-67
2021/04/16 09:43:47;;;;;;;6.03;5.53;;;9.80;96.80;;;;;;5020856;28;20845;-67
2021/04/16 09:46:31;;;;;;;7.20;6.50;;;9.40;97.80;;;;;;5020377;28;20436;-68
2021/04/16 09:49:02;;;;;;;6.70;5.70;;;9.30;98.90;;;;;;5022997;28;20795;-66
2021/04/16 09:51:46;;;;;;;6.80;6.17;;;9.40;99.30;;;;;;5023419;28;20435;-67
2021/04/16 09:54:21;;;;;;;6.50;5.63;;;10.20;98.20;;;;;;5038252;28;20445;-67
2021/04/16 09:57:01;;;;;;;7.60;6.90;;;10.40;96.50;;;;;;5025206;28;20825;-67
2021/04/16 09:59:44;;;;;;;6.60;5.87;;;10.80;95.90;;;;;;5020866;28;20440;-66
2021/04/16 10:02:13;;;;;;;6.60;6.00;;;10.90;95.10;;;;;;5025938;28;21266;-67
2021/04/16 10:04:50;;;;;;;5.93;5.53;;;10.80;95.10;;;;;;5025589;28;20432;-67
2021/04/16 10:07:19;;;;;;;6.27;5.77;;;10.30;96.00;;;;;;5023740;28;20448;-67
2021/04/16 10:09:45;;;;;;;7.30;6.70;;;9.90;96.20;;;;;;5025945;28;20479;-66
2021/04/16 10:12:18;;;;;;;6.33;5.80;;;9.60;97.00;;;;;;5028036;28;21019;-67
2021/04/16 10:14:44;;;;;;;5.60;5.13;;;9.20;97.50;;;;;;5027120;28;20227;-67
2021/04/16 10:17:16;;;;;;;5.57;5.07;;;9.00;97.70;;;;;;5019448;28;20572;-67
2021/04/16 10:20:03;;;;;;;5.83;5.33;;;10.30;96.70;;;;;;5024606;28;20182;-67
2021/04/16 10:22:33;;;;;;;5.90;5.40;;;11.10;94.20;;;;;;5025404;28;20468;-67
2021/04/16 11:16:46;;;;;;;7.00;6.30;;;8.60;99.90;;;;;;5026837;28;20478;-68
2021/04/16 12:38:47;;;;;;;5.90;4.93;;;8.50;98.90;;;;;;5026001;28;21016;-66
2021/04/16 12:41:18;;;;;;;6.23;5.63;;;8.40;98.70;;;;;;5031968;28;20460;-67
2021/04/16 12:43:45;;;;;;;5.40;5.00;;;8.40;98.90;;;;;;5029858;28;20425;-67
2021/04/16 12:46:15;;;;;;;5.87;5.37;;;8.30;99.30;;;;;;5025876;28;20437;-67
2021/04/16 12:48:41;;;;;;;5.10;4.80;;;8.30;99.30;;;;;;5031575;28;20483;-67
2021/04/16 12:51:07;;;;;;;5.97;5.47;;;8.30;99.60;;;;;;5020207;28;20444;-67
2021/04/16 12:53:32;;;;;;;7.50;6.00;;;8.30;99.80;;;;;;5036124;28;20428;-67
2021/04/16 12:55:58;;;;;;;5.73;5.13;;;8.30;99.70;;;;;;5038215;28;20543;-66
2021/04/16 12:58:29;;;;;;;6.07;5.57;;;8.30;99.90;;;;;;5029863;28;20230;-66
2021/04/16 13:00:57;;;;;;;7.17;6.30;;;8.10;99.90;;;;;;5030222;28;20210;-65
2021/04/16 13:03:33;;;;;;;6.40;5.90;;;8.10;99.90;;;;;;5037967;28;20432;-67
2021/04/16 13:05:59;;;;;;;6.27;5.67;;;8.10;99.90;;;;;;5028484;28;20836;-66
2021/04/16 13:08:25;;;;;;;6.67;6.07;;;8.20;99.90;;;;;;5031151;28;20444;-66
2021/04/16 13:10:50;;;;;;;5.57;5.13;;;8.30;99.90;;;;;;5029899;28;20421;-67
2021/04/16 13:13:16;;;;;;;5.70;5.20;;;8.30;99.90;;;;;;5031233;28;20166;-67
2021/04/16 13:15:42;;;;;;;5.57;5.17;;;8.60;99.80;;;;;;5033305;28;20437;-65
2021/04/16 13:18:16;;;;;;;5.40;4.90;;;8.70;99.10;;;;;;5028446;28;20207;-67
2021/04/16 13:20:46;;;;;;;6.90;6.20;;;8.90;99.00;;;;;;5030676;28;20166;-67
2021/04/16 13:23:12;;;;;;;10.53;5.80;;;9.20;98.40;;;;;;5020857;28;20919;-66
2021/04/16 13:25:37;;;;;;;6.30;5.70;;;9.40;98.10;;;;;;5031209;28;20432;-65
2021/04/16 13:28:03;;;;;;;5.63;5.13;;;9.50;97.70;;;;;;5031149;28;20202;-66
2021/04/16 13:30:31;;;;;;;6.43;6.00;;;9.60;97.70;;;;;;5026456;28;20523;-67
2021/04/16 13:33:00;;;;;;;6.63;6.03;;;9.60;97.60;;;;;;5029537;28;20712;-67
2021/04/16 13:35:40;;;;;;;6.60;6.00;;;9.40;97.60;;;;;;5030258;28;20425;-66
2021/04/16 13:38:12;;;;;;;6.90;6.30;;;9.20;98.10;;;;;;5027876;28;20551;-67
2021/04/16 13:40:38;;;;;;;6.43;5.93;;;8.90;98.70;;;;;;5031025;28;20455;-66
2021/04/16 13:43:05;;;;;;;5.90;5.40;;;8.70;99.00;;;;;;5020394;28;20946;-68
2021/04/16 13:45:31;;;;;;;6.80;5.50;;;8.60;98.80;;;;;;5029732;28;20876;-66
2021/04/16 13:47:57;;;;;;;5.53;5.13;;;8.70;99.40;;;;;;5031276;28;20445;-66
2021/04/16 13:50:23;;;;;;;5.90;5.40;;;8.70;99.00;;;;;;5029162;28;20451;-66
2021/04/16 13:52:49;;;;;;;6.00;4.73;;;8.80;98.90;;;;;;5017358;28;20186;-68
2021/04/16 13:55:16;;;;;;;8.33;5.00;;;8.90;98.40;;;;;;5030296;28;20437;-66
2021/04/16 13:57:42;;;;;;;5.50;4.70;;;8.90;98.20;;;;;;5031579;28;20444;-66
2021/04/16 14:00:12;;;;;;;5.37;4.83;;;8.90;98.30;;;;;;5029986;28;20460;-68
2021/04/16 14:02:46;;;;;;;5.70;5.20;;;8.90;98.30;;;;;;5028425;28;20462;-66
2021/04/16 14:05:15;;;;;;;5.03;4.67;;;8.70;98.20;;;;;;5027766;28;20467;-67
2021/04/16 14:07:42;;;;;;;5.30;4.90;;;8.60;99.00;;;;;;5024939;28;20560;-67
2021/04/16 14:10:08;;;;;;;6.13;5.70;;;8.60;98.70;;;;;;5030732;28;20882;-67
2021/04/16 14:12:34;;;;;;;6.50;5.00;;;8.60;98.70;;;;;;5028645;28;20437;-68
2021/04/16 14:15:00;;;;;;;4.83;4.43;;;8.80;98.80;;;;;;5045660;28;20433;-66
2021/04/16 14:17:44;;;;;;;4.77;4.37;;;8.80;98.40;;;;;;5030612;28;20554;-66
2021/04/16 14:20:21;;;;;;;5.33;4.93;;;8.80;98.30;;;;;;5030909;28;20174;-67
2021/04/16 14:22:50;;;;;;;8.40;6.50;;;9.00;98.10;;;;;;5026098;28;22263;-68
2021/04/16 14:25:24;;;;;;;7.63;6.53;;;9.20;97.30;;;;;;5021479;28;20429;-67
2021/04/16 14:27:50;;;;;;;5.60;5.10;;;9.30;96.80;;;;;;5027753;28;20487;-66
2021/04/16 14:30:37;;;;;;;5.07;4.53;;;9.30;96.60;;;;;;5027855;28;20797;-66
2021/04/16 14:33:06;;;;;;;5.37;4.77;;;9.10;96.60;;;;;;5028474;28;20440;-67
2021/04/16 14:35:32;;;;;;;5.50;5.00;;;9.00;97.10;;;;;;5031075;28;20434;-66
2021/04/16 14:38:01;;;;;;;5.20;4.37;;;9.00;96.90;;;;;;5027758;28;20530;-67
2021/04/16 14:40:26;;;;;;;4.40;4.10;;;9.00;96.80;;;;;;5027465;28;20443;-67
2021/04/16 14:42:53;;;;;;;4.23;3.90;;;8.80;96.80;;;;;;5025406;28;20473;-66
2021/04/16 14:45:25;;;;;;;4.00;3.70;;;8.50;97.20;;;;;;5026767;28;20179;-66
2021/04/16 14:47:50;;;;;;;3.37;3.17;;;8.40;97.20;;;;;;5027907;28;20468;-66
2021/04/16 14:50:16;;;;;;;4.13;3.70;;;8.20;97.00;;;;;;5027471;28;20942;-67
2021/04/16 14:52:43;;;;;;;4.60;3.67;;;8.10;97.50;;;;;;5025881;28;20565;-67
2021/04/16 14:55:16;;;;;;;3.90;3.60;;;8.10;97.70;;;;;;5027038;28;21292;-67
2021/04/16 14:57:43;;;;;;;4.27;3.97;;;8.20;98.00;;;;;;5027337;28;20468;-67
2021/04/16 15:00:12;;;;;;;4.63;4.00;;;8.30;97.60;;;;;;5019892;28;20947;-66
2021/04/16 15:02:37;;;;;;;3.30;3.10;;;8.30;97.20;;;;;;5028774;28;20495;-66
2021/04/16 15:05:04;;;;;;;4.10;3.73;;;8.40;97.20;;;;;;5028852;28;20433;-67
2021/04/16 15:07:48;;;;;;;3.57;3.30;;;8.40;97.00;;;;;;5028337;28;20197;-66
2021/04/16 15:10:25;;;;;;;3.93;3.53;;;8.40;97.10;;;;;;5030411;28;20956;-66
2021/04/16 15:12:51;;;;;;;4.13;3.60;;;8.50;96.90;;;;;;5025969;28;20436;-66
2021/04/16 15:15:41;;;;;;;3.70;3.40;;;8.60;96.60;;;;;;5027116;28;20819;-66
2021/04/16 15:18:11;;;;;;;4.07;3.37;;;8.60;96.60;;;;;;5019316;28;20476;-67